Accueil
METAR-TAF:

METAR-TAF

Aéroports :

Aéroport de Figari Sud Corse

Figari, France

latitude: 41-30N, longitude: 009-06E, altitude: 26 m

Observation

Le bulletin a été fait il y a 39 minutes, à 19:30 UTC
Vent 4 kt de nord-est
Température 6°C
Humidité 93%
Pression 1022 hPa
Visibilité 10 km ou plus
pas de nuages en-dessous de 1500 mètres et pas de cumulonimbus.

METAR: LFKF 271930Z AUTO 04004KT CAVOK 06/05 Q1022 NOSIG

Heure: 21:09 (20:09 UTC)

Prévision

Le bulletin a été fait il y a 6 heures et 9 minutes, à 14:00 UTC
Prévision valable du 27 à 15 UTC au 28 à 15 UTC
Vent 10 kt de est/nord-est
Visibilité 10 km ou plus
pas de nuages en-dessous de 1500 mètres et pas de cumulonimbus.

TAF: LFKF 271400Z 2715/2815 07010KT CAVOK

Observations et prévisions météorologiques de plus de 4000 aéroports (messages METAR et TAF).

Les stations disponibles sont représentées par des disques jaunes et rouges sur la carte.

Passer la souris dessus pour voir le nom de la station.

Cliquer dessus pour voir les observations et prévisions météorologiques.

Pour changer de carte: cliquez sur les boutons verts avec une croix noire pour zoomer, sur le bouton vert avec un tiret pour effectuer un zoom arrière, ou sur les flèches vertes pour les cartes adjacentes.


METAR-TAF: